createdAt,value
2023-01-11T00:00:45.167Z,7.48
2023-01-11T00:03:17.978Z,7.29
2023-01-11T00:05:45.878Z,7.62
2023-01-11T00:08:15.045Z,7.60
2023-01-11T00:10:42.884Z,7.51
2023-01-11T00:13:10.673Z,7.29
2023-01-11T00:15:40.654Z,7.34
2023-01-11T00:18:08.647Z,7.46
2023-01-11T00:20:39.781Z,7.35
2023-01-11T00:23:10.522Z,7.24
2023-01-11T00:25:38.627Z,7.47
2023-01-11T00:28:09.703Z,7.49
2023-01-11T00:30:37.412Z,7.55
2023-01-11T00:33:05.130Z,7.63
2023-01-11T00:35:33.220Z,7.66
2023-01-11T00:38:07.575Z,8.15
2023-01-11T00:40:37.043Z,8.08
2023-01-11T00:43:22.371Z,7.83
2023-01-11T00:46:16.288Z,8.38
2023-01-11T00:48:44.024Z,8.00
2023-01-11T00:51:11.770Z,7.93
2023-01-11T00:53:40.960Z,7.75
2023-01-11T00:56:10.787Z,7.60
2023-01-11T00:58:43.826Z,7.70
2023-01-11T01:01:11.608Z,7.55
2023-01-11T01:03:39.388Z,7.75
2023-01-11T01:06:07.169Z,7.87
2023-01-11T01:08:36.204Z,7.86
2023-01-11T01:11:06.288Z,7.56
2023-01-11T01:13:59.030Z,7.84
2023-01-11T01:16:26.862Z,7.69
2023-01-11T01:18:57.251Z,8.00
2023-01-11T01:21:25.516Z,7.91
2023-01-11T01:23:53.511Z,7.89
2023-01-11T01:26:24.479Z,7.89
2023-01-11T01:28:59.454Z,7.82
2023-01-11T01:31:27.221Z,7.62
2023-01-11T01:33:57.225Z,7.73
2023-01-11T01:36:25.065Z,7.68
2023-01-11T01:38:52.900Z,7.68
2023-01-11T01:41:22.019Z,7.99
2023-01-11T01:43:53.031Z,7.65
2023-01-11T01:46:22.821Z,7.60
2023-01-11T01:48:54.569Z,7.66
2023-01-11T01:51:27.738Z,7.46
2023-01-11T01:53:59.632Z,7.66
2023-01-11T01:56:34.524Z,7.80
2023-01-11T01:59:08.830Z,7.67
2023-01-11T02:01:48.688Z,7.68
2023-01-11T02:04:21.547Z,7.50
2023-01-11T02:06:50.016Z,7.69
2023-01-11T02:09:26.563Z,7.55
2023-01-11T02:11:59.604Z,7.65
2023-01-11T02:14:31.172Z,7.54
2023-01-11T02:17:00.975Z,7.75
2023-01-11T02:19:41.997Z,7.81
2023-01-11T02:22:31.966Z,7.80
2023-01-11T02:25:41.655Z,7.52
2023-01-11T02:28:13.184Z,7.63
2023-01-11T02:30:50.130Z,7.64
2023-01-11T02:33:27.059Z,7.82
2023-01-11T02:36:05.651Z,7.94
2023-01-11T02:38:42.320Z,7.97
2023-01-11T02:41:20.318Z,7.89
2023-01-11T02:44:18.344Z,8.09
2023-01-11T02:46:49.401Z,7.60
2023-01-11T02:49:26.630Z,8.30
2023-01-11T02:52:05.314Z,7.78
2023-01-11T02:54:35.102Z,7.71
2023-01-11T02:57:09.461Z,8.22
2023-01-11T02:59:45.156Z,8.31
2023-01-11T03:02:14.080Z,8.43
2023-01-11T03:04:41.829Z,8.27
2023-01-11T03:07:23.607Z,8.59
2023-01-11T03:10:04.384Z,8.43
2023-01-11T03:12:55.655Z,8.43
2023-01-11T03:15:44.683Z,8.20
2023-01-11T03:18:26.934Z,8.43
2023-01-11T03:21:05.697Z,8.33
2023-01-11T03:23:39.338Z,8.31
2023-01-11T03:26:17.118Z,7.97
2023-01-11T03:28:55.419Z,8.50
2023-01-11T03:31:32.550Z,8.38
2023-01-11T03:34:06.522Z,8.11
2023-01-11T03:36:39.885Z,7.90
2023-01-11T03:39:16.715Z,8.27
2023-01-11T03:41:45.436Z,8.19
2023-01-11T03:44:17.487Z,8.35
2023-01-11T03:46:49.651Z,8.44
2023-01-11T03:49:23.170Z,8.16
2023-01-11T03:51:52.874Z,8.84
2023-01-11T03:54:24.645Z,7.88
2023-01-11T03:56:57.400Z,8.81
2023-01-11T03:59:25.363Z,8.51
2023-01-11T04:01:55.771Z,8.77
2023-01-11T04:04:23.853Z,8.92
2023-01-11T04:06:51.676Z,8.81
2023-01-11T04:09:19.842Z,8.67
2023-01-11T04:11:47.571Z,8.64
2023-01-11T04:14:15.484Z,8.84
2023-01-11T04:16:44.186Z,8.68
2023-01-11T04:19:13.220Z,8.75
2023-01-11T04:21:40.913Z,8.75
2023-01-11T04:24:08.889Z,8.79
2023-01-11T04:26:36.691Z,8.67
2023-01-11T04:29:04.453Z,8.87
2023-01-11T04:31:32.514Z,8.98
2023-01-11T04:34:00.190Z,9.05
2023-01-11T04:36:31.244Z,8.76
2023-01-11T04:38:59.150Z,8.64
2023-01-11T04:41:44.407Z,8.72
2023-01-11T04:44:12.089Z,8.58
2023-01-11T04:46:39.877Z,8.94
2023-01-11T04:49:07.577Z,8.80
2023-01-11T04:51:36.606Z,8.94
2023-01-11T04:54:07.328Z,8.78
2023-01-11T04:56:36.326Z,8.61
2023-01-11T04:59:04.303Z,8.40
2023-01-11T05:01:32.093Z,8.31
2023-01-11T05:03:59.951Z,8.57
2023-01-11T05:06:27.810Z,8.79
2023-01-11T05:08:56.990Z,8.48
2023-01-11T05:11:24.763Z,8.92
2023-01-11T05:13:52.480Z,8.70
2023-01-11T05:16:23.709Z,8.43
2023-01-11T05:18:53.329Z,8.80
2023-01-11T05:21:23.300Z,9.01
2023-01-11T05:23:51.673Z,8.85
2023-01-11T05:26:23.794Z,8.73
2023-01-11T05:28:52.675Z,8.53
2023-01-11T05:31:20.523Z,8.85
2023-01-11T05:33:48.762Z,8.56
2023-01-11T05:36:21.117Z,8.71
2023-01-11T05:38:50.293Z,8.38
2023-01-11T05:41:20.579Z,8.49
2023-01-11T05:44:08.255Z,8.71
2023-01-11T05:46:38.124Z,8.55
2023-01-11T05:49:06.792Z,8.72
2023-01-11T05:51:35.528Z,8.27
2023-01-11T05:54:04.932Z,8.48
2023-01-11T05:56:34.036Z,8.54
2023-01-11T05:59:02.234Z,8.32
2023-01-11T06:01:29.914Z,8.53
2023-01-11T06:03:57.617Z,8.41
2023-01-11T06:06:25.439Z,8.54
2023-01-11T06:08:55.893Z,8.69
2023-01-11T06:11:23.646Z,8.45
2023-01-11T06:13:52.714Z,8.36
2023-01-11T06:16:22.133Z,8.57
2023-01-11T06:18:51.512Z,8.61
2023-01-11T06:21:20.264Z,8.37
2023-01-11T06:23:50.715Z,8.31
2023-01-11T06:26:21.846Z,8.05
2023-01-11T06:28:50.724Z,7.91
2023-01-11T06:31:20.320Z,7.88
2023-01-11T06:33:48.387Z,8.16
2023-01-11T06:36:17.389Z,8.19
2023-01-11T06:38:45.685Z,8.19
2023-01-11T06:41:14.060Z,8.07
2023-01-11T06:43:42.416Z,8.15
2023-01-11T06:46:14.887Z,8.06
2023-01-11T06:48:44.116Z,7.94
2023-01-11T06:51:12.863Z,8.22
2023-01-11T06:53:41.164Z,8.67
2023-01-11T06:56:11.887Z,9.06
2023-01-11T06:58:39.723Z,8.87
2023-01-11T07:01:08.142Z,8.82
2023-01-11T07:03:36.023Z,8.73
2023-01-11T07:06:05.172Z,8.69
2023-01-11T07:08:32.929Z,8.91
2023-01-11T07:11:00.745Z,8.80
2023-01-11T07:13:28.529Z,9.14
2023-01-11T07:15:58.505Z,8.93
2023-01-11T07:18:26.283Z,8.88
2023-01-11T07:20:54.051Z,9.04
2023-01-11T07:23:23.182Z,9.00
2023-01-11T07:25:51.072Z,8.85
2023-01-11T07:28:18.826Z,8.90
2023-01-11T07:30:58.209Z,9.36
2023-01-11T07:33:26.315Z,9.48
2023-01-11T07:35:54.616Z,9.46
2023-01-11T07:38:23.994Z,9.24
2023-01-11T07:40:51.748Z,9.12
2023-01-11T07:43:19.969Z,9.47
2023-01-11T07:45:49.599Z,9.23
2023-01-11T07:48:20.996Z,9.50
2023-01-11T07:50:49.552Z,9.54
2023-01-11T07:53:18.843Z,9.63
2023-01-11T07:55:48.658Z,9.58
2023-01-11T07:58:17.303Z,9.52
2023-01-11T08:00:46.076Z,9.83
2023-01-11T08:03:14.150Z,9.87
2023-01-11T08:05:42.113Z,9.54
2023-01-11T08:08:09.848Z,9.77
2023-01-11T08:10:39.165Z,9.73
2023-01-11T08:13:31.447Z,10.21
2023-01-11T08:15:59.279Z,10.06
2023-01-11T08:18:27.145Z,9.99
2023-01-11T08:20:54.937Z,9.83
2023-01-11T08:23:22.703Z,9.87
2023-01-11T08:25:50.490Z,10.05
2023-01-11T08:28:19.649Z,9.96
2023-01-11T08:30:47.421Z,9.95
2023-01-11T08:33:15.391Z,10.00
2023-01-11T08:35:43.147Z,10.07
2023-01-11T08:38:10.936Z,10.04
2023-01-11T08:40:38.731Z,10.04
2023-01-11T08:43:06.537Z,10.30
2023-01-11T08:45:35.688Z,10.22
2023-01-11T08:48:03.599Z,9.99
2023-01-11T08:50:31.264Z,9.80
2023-01-11T08:52:59.175Z,10.18
2023-01-11T08:55:26.971Z,10.15
2023-01-11T08:57:56.123Z,10.27
2023-01-11T09:00:24.143Z,10.05
2023-01-11T09:02:53.579Z,10.30
2023-01-11T09:05:21.398Z,10.53
2023-01-11T09:07:49.176Z,10.43
2023-01-11T09:10:17.291Z,10.44
2023-01-11T09:12:45.022Z,10.52
2023-01-11T09:15:12.996Z,10.71
2023-01-11T09:17:40.755Z,10.48
2023-01-11T09:20:12.385Z,10.41
2023-01-11T09:22:40.606Z,10.42
2023-01-11T09:25:09.880Z,10.52
2023-01-11T09:27:37.945Z,10.64
2023-01-11T09:30:06.778Z,10.56
2023-01-11T09:32:34.472Z,10.87
2023-01-11T09:35:03.598Z,10.97
2023-01-11T09:37:32.813Z,10.85
2023-01-11T09:40:01.496Z,10.65
2023-01-11T09:42:37.415Z,10.54
2023-01-11T09:45:13.689Z,10.55
2023-01-11T09:47:46.011Z,10.95
2023-01-11T09:50:18.640Z,10.71
2023-01-11T09:52:52.741Z,10.69
2023-01-11T09:55:28.560Z,10.78
2023-01-11T09:58:28.256Z,10.68
2023-01-11T10:01:03.287Z,10.56
2023-01-11T10:03:59.850Z,10.61
2023-01-11T10:06:32.715Z,10.65
2023-01-11T10:18:31.924Z,10.63
2023-01-11T10:18:38.617Z,10.77
2023-01-11T10:21:16.965Z,10.72
2023-01-11T10:23:50.402Z,10.75
2023-01-11T10:26:28.332Z,10.38
2023-01-11T10:29:22.185Z,10.57
2023-01-11T10:32:13.584Z,10.51
2023-01-11T10:35:00.292Z,10.20
2023-01-11T10:37:48.119Z,9.97
2023-01-11T10:40:41.146Z,10.07
2023-01-11T10:43:20.161Z,9.91
2023-01-11T10:45:52.762Z,10.03
2023-01-11T10:48:28.272Z,9.63
2023-01-11T10:51:04.964Z,9.97
2023-01-11T10:53:39.548Z,9.71
2023-01-11T10:56:16.258Z,9.70
2023-01-11T10:59:13.200Z,9.70
2023-01-11T11:01:54.263Z,9.79
2023-01-11T11:04:59.758Z,9.66
2023-01-11T11:07:34.436Z,9.70
2023-01-11T11:10:09.178Z,10.08
2023-01-11T11:12:39.814Z,9.89
2023-01-11T11:15:16.739Z,10.22
2023-01-11T11:17:50.195Z,10.32
2023-01-11T11:20:20.415Z,10.49
2023-01-11T11:22:50.079Z,10.41
2023-01-11T11:25:20.974Z,10.09
2023-01-11T11:27:52.075Z,10.36
2023-01-11T11:30:30.990Z,10.74
2023-01-11T11:33:02.538Z,10.72
2023-01-11T11:35:38.569Z,10.45
2023-01-11T11:38:07.388Z,10.76
2023-01-11T11:40:37.759Z,10.58
2023-01-11T11:43:18.487Z,10.63
2023-01-11T11:45:56.473Z,10.85
2023-01-11T11:48:25.700Z,10.95
2023-01-11T11:50:54.881Z,10.74
2023-01-11T11:53:29.492Z,10.67
2023-01-11T11:55:57.340Z,10.94
2023-01-11T11:58:27.155Z,10.96
2023-01-11T12:00:56.420Z,10.98
2023-01-11T12:03:30.019Z,11.45
2023-01-11T12:06:01.422Z,10.99
2023-01-11T12:08:32.417Z,10.54
2023-01-11T12:11:02.827Z,10.79
2023-01-11T12:13:33.663Z,10.98
2023-01-11T12:16:04.809Z,10.46
2023-01-11T12:18:41.190Z,10.22
2023-01-11T12:21:19.704Z,10.03
2023-01-11T12:23:47.967Z,10.06
2023-01-11T12:26:22.819Z,10.21
2023-01-11T12:29:27.046Z,10.28
2023-01-11T12:32:21.019Z,10.12
2023-01-11T12:35:17.036Z,10.14
2023-01-11T12:38:01.996Z,10.12
2023-01-11T12:40:37.269Z,10.11
2023-01-11T12:43:24.260Z,10.14
2023-01-11T12:46:02.240Z,10.33
2023-01-11T12:48:50.717Z,9.97
2023-01-11T12:51:28.630Z,10.13
2023-01-11T12:54:10.763Z,10.08
2023-01-11T12:56:51.068Z,9.92
2023-01-11T12:59:35.274Z,9.99
2023-01-11T13:02:23.751Z,9.99
2023-01-11T13:05:06.432Z,9.84
2023-01-11T13:07:50.041Z,9.88
2023-01-11T13:10:35.557Z,9.97
2023-01-11T13:13:10.267Z,9.88
2023-01-11T13:15:48.913Z,9.92
2023-01-11T13:18:29.483Z,9.88
2023-01-11T13:21:06.997Z,9.93
2023-01-11T13:23:42.974Z,9.86
2023-01-11T13:26:20.585Z,9.85
2023-01-11T13:28:54.178Z,9.86
2023-01-11T13:31:23.772Z,9.89
2023-01-11T13:33:58.870Z,9.77
2023-01-11T13:36:33.370Z,9.69
2023-01-11T13:39:08.363Z,9.68
2023-01-11T13:41:42.788Z,9.62
2023-01-11T13:44:16.160Z,9.50
2023-01-11T13:46:54.872Z,9.56
2023-01-11T13:49:39.030Z,9.48
2023-01-11T13:52:13.968Z,9.49
2023-01-11T13:54:51.473Z,9.52
2023-01-11T13:57:26.079Z,9.39
2023-01-11T13:59:58.543Z,9.45
2023-01-11T14:02:38.330Z,9.46
2023-01-11T14:05:14.166Z,9.54
2023-01-11T14:07:56.008Z,9.48
2023-01-11T14:10:39.784Z,9.54
2023-01-11T14:14:00.087Z,9.60
2023-01-11T14:16:39.371Z,9.49
2023-01-11T14:19:17.626Z,9.33
2023-01-11T14:21:58.539Z,9.59
2023-01-11T14:24:30.314Z,9.41
2023-01-11T14:27:16.783Z,9.48
2023-01-11T14:30:07.246Z,9.54
2023-01-11T14:33:01.740Z,9.60
2023-01-11T14:36:02.065Z,9.40
2023-01-11T14:38:57.825Z,9.40
2023-01-11T14:41:50.765Z,9.47
2023-01-11T14:44:36.684Z,9.46
2023-01-11T14:47:33.824Z,9.48
2023-01-11T14:50:14.768Z,9.42
2023-01-11T14:52:44.957Z,9.46
2023-01-11T14:55:18.634Z,9.45
2023-01-11T14:58:03.276Z,9.53
2023-01-11T15:01:04.529Z,9.51
2023-01-11T15:03:47.343Z,9.55
2023-01-11T15:06:17.091Z,9.37
2023-01-11T15:08:47.445Z,9.39
2023-01-11T15:11:32.656Z,9.42
2023-01-11T15:14:05.197Z,9.30
2023-01-11T15:16:52.435Z,9.23
2023-01-11T15:19:33.595Z,9.23
2023-01-11T15:22:03.858Z,9.33
2023-01-11T15:24:34.027Z,9.18
2023-01-11T15:27:03.466Z,9.17
2023-01-11T15:29:41.047Z,9.20
2023-01-11T15:32:18.617Z,9.18
2023-01-11T15:34:48.119Z,9.20
2023-01-11T15:37:54.638Z,9.28
2023-01-11T15:40:26.999Z,9.17
2023-01-11T15:43:24.114Z,9.22
2023-01-11T15:46:46.130Z,9.26
2023-01-11T15:49:55.460Z,9.19
2023-01-11T15:53:06.828Z,9.29
2023-01-11T15:56:03.749Z,9.12
2023-01-11T15:58:51.501Z,9.19
2023-01-11T16:01:26.164Z,9.24
2023-01-11T16:04:00.897Z,9.33
2023-01-11T16:06:39.238Z,9.15
2023-01-11T16:09:23.160Z,9.20
2023-01-11T16:12:00.565Z,9.12
2023-01-11T16:14:50.795Z,9.12
2023-01-11T16:17:23.755Z,9.27
2023-01-11T16:19:56.677Z,9.05
2023-01-11T16:22:27.373Z,9.13
2023-01-11T16:24:59.161Z,9.19
2023-01-11T16:27:29.325Z,9.24
2023-01-11T16:29:57.803Z,9.27
2023-01-11T16:32:32.892Z,9.26
2023-01-11T16:35:01.846Z,9.08
2023-01-11T16:37:32.754Z,9.24
2023-01-11T16:40:07.307Z,9.10
2023-01-11T16:42:41.983Z,9.15
2023-01-11T16:45:15.919Z,9.14
2023-01-11T16:48:03.447Z,9.09
2023-01-11T16:50:31.753Z,9.02
2023-01-11T16:53:01.585Z,9.04
2023-01-11T16:55:34.104Z,9.08
2023-01-11T16:58:05.765Z,9.05
2023-01-11T17:00:39.706Z,8.95
2023-01-11T17:03:31.152Z,9.00
2023-01-11T17:06:02.925Z,8.90
2023-01-11T17:08:34.813Z,9.05
2023-01-11T17:11:09.809Z,8.88
2023-01-11T17:14:02.453Z,9.01
2023-01-11T17:16:32.285Z,8.93
2023-01-11T17:19:07.841Z,8.91
2023-01-11T17:21:35.632Z,8.80
2023-01-11T17:24:06.222Z,8.40
2023-01-11T17:26:47.138Z,8.15
2023-01-11T17:29:19.435Z,8.18
2023-01-11T17:31:47.309Z,7.96
2023-01-11T17:34:20.463Z,7.71
2023-01-11T17:36:51.198Z,7.76
2023-01-11T17:39:27.281Z,7.82
2023-01-11T17:42:13.048Z,7.74
2023-01-11T17:44:59.147Z,7.78
2023-01-11T17:47:27.697Z,7.66
2023-01-11T17:49:58.783Z,7.74
2023-01-11T17:52:28.074Z,7.59
2023-01-11T17:55:13.807Z,7.61
2023-01-11T17:57:42.172Z,7.54
2023-01-11T18:00:18.707Z,7.48
2023-01-11T18:02:47.371Z,7.50
2023-01-11T18:05:19.186Z,7.49
2023-01-11T18:07:51.871Z,7.53
2023-01-11T18:10:23.905Z,7.48
2023-01-11T18:12:52.845Z,7.46
2023-01-11T18:15:32.111Z,7.43
2023-01-11T18:18:01.089Z,7.54
2023-01-11T18:20:40.660Z,7.35
2023-01-11T18:23:23.070Z,7.34
2023-01-11T18:25:50.884Z,7.28
2023-01-11T18:28:27.892Z,7.33
2023-01-11T18:30:58.393Z,7.17
2023-01-11T18:33:29.078Z,7.23
2023-01-11T18:36:00.041Z,7.09
2023-01-11T18:38:30.257Z,7.07
2023-01-11T18:41:20.625Z,7.00
2023-01-11T18:43:48.427Z,6.96
2023-01-11T18:46:16.211Z,6.96
2023-01-11T18:48:46.051Z,6.96
2023-01-11T18:51:19.102Z,6.97
2023-01-11T18:53:46.804Z,6.96
2023-01-11T18:56:16.360Z,7.02
2023-01-11T18:58:44.350Z,7.06
2023-01-11T19:01:12.284Z,6.97
2023-01-11T19:03:40.785Z,7.02
2023-01-11T19:06:13.622Z,7.10
2023-01-11T19:08:42.709Z,6.98
2023-01-11T19:11:10.461Z,7.00
2023-01-11T19:13:38.421Z,6.99
2023-01-11T19:16:07.659Z,7.03
2023-01-11T19:18:36.175Z,7.19
2023-01-11T19:21:06.434Z,7.14
2023-01-11T19:23:35.147Z,7.14
2023-01-11T19:26:04.522Z,7.25
2023-01-11T19:28:32.446Z,7.11
2023-01-11T19:31:00.440Z,7.06
2023-01-11T19:33:28.185Z,7.07
2023-01-11T19:35:55.912Z,7.10
2023-01-11T19:38:23.720Z,7.04
2023-01-11T19:40:53.239Z,7.13
2023-01-11T19:43:22.269Z,7.20
2023-01-11T19:45:56.334Z,7.18
2023-01-11T19:48:26.749Z,7.35
2023-01-11T19:51:01.936Z,7.31
2023-01-11T19:53:31.717Z,7.19
2023-01-11T19:56:01.788Z,7.06
2023-01-11T19:58:32.766Z,7.13
2023-01-11T20:01:01.963Z,7.10
2023-01-11T20:03:30.189Z,7.03
2023-01-11T20:06:04.728Z,6.96
2023-01-11T20:08:36.016Z,6.97
2023-01-11T20:11:06.201Z,6.96
2023-01-11T20:13:35.638Z,7.02
2023-01-11T20:16:06.698Z,6.94
2023-01-11T20:18:35.003Z,7.04
2023-01-11T20:21:03.052Z,7.22
2023-01-11T20:23:31.348Z,7.38
2023-01-11T20:26:00.055Z,7.26
2023-01-11T20:28:30.325Z,7.33
2023-01-11T20:31:02.110Z,7.31
2023-01-11T20:33:30.306Z,7.17
2023-01-11T20:35:58.016Z,7.15
2023-01-11T20:38:25.875Z,7.08
2023-01-11T20:40:54.284Z,7.07
2023-01-11T20:43:21.968Z,7.22
2023-01-11T20:45:56.629Z,7.23
2023-01-11T20:48:25.800Z,7.31
2023-01-11T20:50:53.515Z,7.35
2023-01-11T20:53:21.323Z,7.37
2023-01-11T20:55:49.026Z,7.31
2023-01-11T20:58:16.874Z,7.37
2023-01-11T21:00:44.636Z,7.31
2023-01-11T21:03:12.913Z,7.31
2023-01-11T21:05:41.957Z,7.33
2023-01-11T21:08:09.794Z,7.31
2023-01-11T21:10:37.744Z,7.36
2023-01-11T21:13:06.786Z,7.40
2023-01-11T21:15:34.675Z,7.28
2023-01-11T21:18:02.575Z,7.34
2023-01-11T21:20:30.477Z,7.27
2023-01-11T21:22:59.936Z,7.30
2023-01-11T21:25:27.690Z,7.29
2023-01-11T21:27:55.807Z,7.36
2023-01-11T21:30:23.557Z,7.36
2023-01-11T21:32:51.380Z,7.27
2023-01-11T21:35:19.335Z,7.35
2023-01-11T21:37:47.119Z,7.18
2023-01-11T21:40:16.460Z,7.10
2023-01-11T21:42:44.454Z,7.16
2023-01-11T21:45:12.487Z,7.07
2023-01-11T21:47:40.426Z,7.00
2023-01-11T21:50:09.618Z,7.04
2023-01-11T21:52:37.531Z,6.93
2023-01-11T21:55:05.712Z,7.02
2023-01-11T21:57:34.790Z,6.87
2023-01-11T22:00:02.475Z,7.03
2023-01-11T22:02:40.233Z,6.85
2023-01-11T22:05:09.351Z,6.85
2023-01-11T22:07:38.173Z,6.80
2023-01-11T22:10:06.512Z,6.89
2023-01-11T22:12:35.916Z,6.75
2023-01-11T22:15:03.939Z,6.81
2023-01-11T22:17:31.607Z,6.92
2023-01-11T22:19:59.327Z,7.02
2023-01-11T22:22:28.180Z,6.94
2023-01-11T22:24:55.909Z,6.93
2023-01-11T22:27:23.782Z,6.95
2023-01-11T22:29:54.706Z,6.94
2023-01-11T22:32:22.395Z,6.78
2023-01-11T22:34:50.111Z,6.75
2023-01-11T22:37:17.886Z,6.86
2023-01-11T22:39:45.587Z,6.99
2023-01-11T22:42:13.327Z,6.81
2023-01-11T22:44:41.011Z,6.94
2023-01-11T22:47:10.083Z,6.98
2023-01-11T22:49:37.921Z,7.42
2023-01-11T22:52:06.648Z,7.12
2023-01-11T22:54:34.417Z,7.42
2023-01-11T22:57:02.141Z,6.81
2023-01-11T22:59:29.863Z,6.75
2023-01-11T23:01:57.626Z,6.73
2023-01-11T23:04:26.740Z,6.53
2023-01-11T23:06:54.446Z,6.50
2023-01-11T23:09:22.251Z,6.42
2023-01-11T23:12:07.645Z,6.54
2023-01-11T23:14:35.415Z,6.58
2023-01-11T23:17:05.863Z,6.70
2023-01-11T23:19:35.837Z,6.69
2023-01-11T23:22:03.565Z,6.66
2023-01-11T23:24:31.776Z,6.53
2023-01-11T23:26:59.828Z,6.82
2023-01-11T23:29:27.795Z,6.78
2023-01-11T23:31:55.655Z,7.22
2023-01-11T23:34:24.045Z,7.14
2023-01-11T23:36:53.143Z,7.30
2023-01-11T23:39:21.219Z,7.21
2023-01-11T23:42:06.488Z,7.05
2023-01-11T23:44:34.327Z,7.02
2023-01-11T23:47:20.089Z,6.96
2023-01-11T23:49:52.626Z,7.26
2023-01-11T23:52:24.150Z,7.42
2023-01-11T23:54:52.382Z,7.21
2023-01-11T23:57:21.660Z,6.77
2023-01-11T23:59:49.860Z,7.23
